Time;durP1;ratioP1;P1;durP2;ratioP2;P2;SDS_P1;SDS_P2;PMS_P1;PMS_P2;Temp;Humidity;BMP_temperature;BMP_pressure;BME280_temperature;BME280_humidity;BME280_pressure;Samples;Min_cycle;Max_cycle;Signal;HPM_P1;HPM_P2
2022/01/12 00:00:48;;;;;;;15.80;7.97;;;;;;;-1.38;68.87;95744.84;5018765;28;20140;-81
2022/01/12 00:03:13;;;;;;;14.60;6.40;;;;;;;-1.80;68.93;95733.41;5018853;28;20041;-82
2022/01/12 00:05:39;;;;;;;15.15;7.80;;;;;;;-1.93;69.63;95689.06;5000855;28;20037;-82
2022/01/12 00:08:05;;;;;;;18.67;8.27;;;;;;;-1.37;69.47;95749.84;5033917;28;20040;-81
2022/01/12 00:10:31;;;;;;;16.45;7.25;;;;;;;-1.59;68.17;95728.22;5000494;28;20377;-82
2022/01/12 00:12:56;;;;;;;16.15;7.60;;;;;;;-1.70;68.31;95702.72;5019200;28;20042;-81
2022/01/12 00:15:22;;;;;;;17.65;7.80;;;;;;;-1.39;68.17;95746.66;5019316;28;20041;-81
2022/01/12 00:17:47;;;;;;;17.40;8.02;;;;;;;-1.23;68.65;95756.81;5034280;28;20072;-81
2022/01/12 00:20:13;;;;;;;15.15;7.50;;;;;;;-1.78;68.71;95700.22;5034545;28;20096;-81
2022/01/12 00:22:40;;;;;;;18.60;7.55;;;;;;;-1.47;67.62;95744.16;5020254;28;20038;-81
2022/01/12 00:25:26;;;;;;;18.50;8.15;;;;;;;-1.81;68.52;95687.59;5013988;28;20154;-81
2022/01/12 00:33:21;;;;;;;20.23;8.15;;;;;;;-2.12;68.83;95661.06;5020413;28;20072;-81
2022/01/12 00:35:50;;;;;;;15.77;7.28;;;;;;;-1.47;68.89;95774.56;5001962;28;20044;-81
2022/01/12 00:38:17;;;;;;;17.85;8.30;;;;;;;-1.49;68.75;95781.75;5019150;28;20105;-81
2022/01/12 00:40:52;;;;;;;17.00;7.15;;;;;;;-1.63;68.73;95762.59;5002447;28;20469;-81
2022/01/12 00:43:19;;;;;;;19.20;7.57;;;;;;;-1.80;69.21;95714.41;5002436;28;20076;-81
2022/01/12 00:45:46;;;;;;;17.50;7.20;;;;;;;-1.37;68.49;95767.25;5002224;28;20042;-81
2022/01/12 00:48:14;;;;;;;14.85;7.90;;;;;;;-2.22;68.50;95656.16;5002519;28;20034;-81
2022/01/12 00:50:42;;;;;;;15.45;7.35;;;;;;;-1.55;67.30;95757.28;5020230;28;20429;-82
2022/01/12 00:53:08;;;;;;;12.00;6.38;;;;;;;-1.73;67.68;95734.28;5003276;28;20101;-82
2022/01/12 00:55:35;;;;;;;15.73;7.22;;;;;;;-1.27;68.77;95781.59;5002400;28;20069;-81
2022/01/12 00:58:01;;;;;;;14.85;7.30;;;;;;;-1.74;68.45;95704.06;5001293;28;20072;-81
2022/01/12 01:00:27;;;;;;;15.85;6.88;;;;;;;-1.67;67.46;95727.53;5002650;28;20038;-82
2022/01/12 01:02:56;;;;;;;17.95;6.88;;;;;;;-1.85;67.63;95688.16;5002107;28;20050;-81
2022/01/12 01:05:27;;;;;;;16.15;6.85;;;;;;;-1.17;68.10;95763.88;1376499;28;10022736;-81
2022/01/12 01:07:53;;;;;;;13.95;7.05;;;;;;;-1.89;67.22;95697.28;3966949;28;10001330;-81
2022/01/12 01:12:55;;;;;;;16.80;7.55;;;;;;;-1.47;67.25;95720.75;2075292;28;10002006;-81
2022/01/12 01:15:38;;;;;;;15.85;7.75;;;;;;;-1.37;67.53;95762.84;5000230;28;20054;-81
2022/01/12 01:26:15;;;;;;;14.15;6.55;;;;;;;-1.11;66.85;95772.72;5018557;28;20052;-81
2022/01/12 01:28:40;;;;;;;15.68;7.65;;;;;;;-1.52;66.31;95737.88;5018323;28;20049;-81
2022/01/12 01:31:06;;;;;;;15.88;7.13;;;;;;;-1.72;66.69;95715.09;5017936;28;20037;-81
2022/01/12 01:33:33;;;;;;;14.25;6.43;;;;;;;-1.92;67.10;95701.09;5017765;28;20436;-81
2022/01/12 01:35:58;;;;;;;15.52;6.68;;;;;;;-1.27;67.38;95783.38;5018284;28;20026;-81
2022/01/12 01:38:24;;;;;;;15.35;7.00;;;;;;;-1.59;67.17;95727.41;5032558;28;20041;-81
2022/01/12 01:40:49;;;;;;;16.98;7.20;;;;;;;-1.65;66.63;95746.34;5000082;28;20067;-80
2022/01/12 01:54:12;;;;;;;13.43;6.70;;;;;;;-1.90;67.50;95722.47;5017310;28;20096;-82
2022/01/12 01:56:38;;;;;;;13.77;6.47;;;;;;;-1.62;67.47;95754.63;5017612;28;20033;-81
2022/01/12 01:59:03;;;;;;;10.30;5.55;;;;;;;-1.64;66.90;95727.97;4999051;28;20049;-82
2022/01/12 02:01:29;;;;;;;13.70;6.93;;;;;;;-1.50;67.19;95754.94;4999311;28;20026;-82
2022/01/12 02:03:58;;;;;;;12.88;6.30;;;;;;;-1.44;66.93;95793.22;5017674;28;20026;-81
2022/01/12 02:06:24;;;;;;;13.52;6.50;;;;;;;-1.77;66.66;95738.25;4999245;28;20107;-81
2022/01/12 02:08:50;;;;;;;19.48;6.07;;;;;;;-1.84;67.19;95754.75;5016537;28;20033;-81
2022/01/12 02:11:15;;;;;;;14.75;7.00;;;;;;;-1.91;66.77;95727.88;4998525;28;20022;-81
2022/01/12 02:13:40;;;;;;;14.93;6.93;;;;;;;-1.74;66.86;95758.66;5016410;28;20056;-81
2022/01/12 02:16:06;;;;;;;14.40;6.30;;;;;;;-1.54;66.87;95797.09;5001593;28;20038;-81
2022/01/12 02:18:41;;;;;;;13.82;6.78;;;;;;;-1.84;66.68;95719.16;5019715;28;20129;-81
2022/01/12 02:39:50;;;;;;;12.82;6.88;;;;;;;-2.54;67.21;95721.50;5015943;28;20122;-80
2022/01/12 02:40:23;;;;;;;13.48;6.78;;;;;;;-2.39;67.12;95772.44;5015307;28;20120;-81
2022/01/12 02:42:58;;;;;;;17.15;5.75;;;;;;;-2.27;67.22;95767.59;5017354;28;20033;-79
2022/01/12 02:53:39;;;;;;;14.32;5.47;;;;;;;-1.90;67.05;95843.84;5018327;28;20053;-79
2022/01/12 02:56:16;;;;;;;14.05;7.22;;;;;;;-2.24;67.71;95788.03;5001019;28;20120;-79
2022/01/12 02:58:44;;;;;;;13.40;5.78;;;;;;;-1.77;67.30;95844.06;5033402;28;20058;-79
2022/01/12 03:03:43;;;;;;;15.35;6.43;;;;;;;-1.70;67.30;95855.34;5017840;28;20048;-79
2022/01/12 03:06:10;;;;;;;13.70;6.30;;;;;;;-1.75;66.49;95855.88;5033890;28;20117;-79
2022/01/12 03:08:38;;;;;;;14.60;6.65;;;;;;;-2.88;67.59;95690.84;5018245;28;20049;-79
2022/01/12 03:11:20;;;;;;;21.10;6.70;;;;;;;-2.01;67.21;95840.75;2134319;28;10024148;-79
2022/01/12 03:13:46;;;;;;;17.77;7.57;;;;;;;-2.08;67.33;95824.25;3622823;28;10001197;-79
2022/01/12 03:16:14;;;;;;;12.55;5.57;;;;;;;-2.22;66.61;95801.66;5002386;28;20041;-79
2022/01/12 03:18:45;;;;;;;14.57;7.00;;;;;;;-2.10;66.51;95835.81;5020739;28;20061;-79
2022/01/12 03:21:12;;;;;;;16.85;7.25;;;;;;;-1.99;65.82;95845.75;5020363;28;20038;-79
2022/01/12 03:23:38;;;;;;;15.43;6.30;;;;;;;-1.81;66.89;95879.19;5021114;28;20045;-79
2022/01/12 03:26:04;;;;;;;14.75;7.65;;;;;;;-2.18;66.78;95834.09;5020212;28;20034;-79
2022/01/12 03:28:31;;;;;;;14.95;6.97;;;;;;;-1.97;65.57;95843.78;5021995;28;20168;-79
2022/01/12 04:08:51;;;;;;;20.90;7.55;;;;;;;-2.66;66.98;95827.56;5020968;28;20094;-80
2022/01/12 04:11:16;;;;;;;18.45;8.05;;;;;;;-2.42;66.51;95866.31;5036633;28;20481;-80
2022/01/12 04:13:43;;;;;;;13.23;6.88;;;;;;;-2.67;66.14;95844.13;5001756;28;20038;-79
2022/01/12 04:16:11;;;;;;;18.77;8.30;;;;;;;-2.05;66.62;95942.63;5002934;28;20053;-79
2022/01/12 04:18:37;;;;;;;16.60;7.40;;;;;;;-1.93;65.99;95941.22;5003556;28;20030;-79
2022/01/12 04:21:06;;;;;;;16.05;7.53;;;;;;;-2.63;66.00;95873.97;5021509;28;20147;-79
2022/01/12 04:23:32;;;;;;;17.20;8.07;;;;;;;-2.30;65.21;95910.88;5004187;28;20034;-79
2022/01/12 04:26:00;;;;;;;16.45;8.10;;;;;;;-3.18;66.15;95794.56;5022006;28;20100;-79
2022/01/12 04:28:28;;;;;;;19.10;7.43;;;;;;;-2.21;66.34;95927.19;5020724;28;20050;-79
2022/01/12 04:30:55;;;;;;;18.92;8.07;;;;;;;-3.16;65.54;95758.09;5019767;28;20053;-79
2022/01/12 04:33:21;;;;;;;19.70;7.78;;;;;;;-2.16;65.78;95919.69;5019819;28;20377;-79
2022/01/12 04:35:51;;;;;;;13.18;7.07;;;;;;;-1.75;64.85;95957.28;5001294;28;20045;-79
2022/01/12 04:38:18;;;;;;;19.67;7.90;;;;;;;-2.13;64.96;95888.94;5002669;28;20145;-79
2022/01/12 04:40:44;;;;;;;26.20;8.02;;;;;;;-1.66;64.43;95958.81;4999812;28;20072;-79
2022/01/12 04:43:10;;;;;;;25.05;8.23;;;;;;;-2.11;65.22;95912.94;5000011;28;20081;-79
2022/01/12 04:46:29;;;;;;;25.50;7.82;;;;;;;-1.84;64.45;95962.75;5002564;28;20044;-79
2022/01/12 04:50:54;;;;;;;17.17;7.28;;;;;;;-2.02;64.91;95924.91;5019274;28;20038;-80
2022/01/12 04:53:20;;;;;;;18.35;7.32;;;;;;;-2.19;64.81;95931.22;5020308;28;20082;-79
2022/01/12 04:55:47;;;;;;;23.02;7.40;;;;;;;-2.44;64.85;95898.66;5018780;28;20052;-79
2022/01/12 04:58:17;;;;;;;20.40;8.07;;;;;;;-2.54;65.17;95896.28;5001240;28;20041;-79
2022/01/12 05:00:44;;;;;;;22.20;8.00;;;;;;;-1.80;65.69;95984.81;5000699;28;20034;-80
2022/01/12 05:14:06;;;;;;;21.75;7.45;;;;;;;-2.56;64.50;95887.06;4052484;28;10001994;-79
2022/01/12 05:16:31;;;;;;;24.02;8.07;;;;;;;-2.12;64.21;95962.50;1728285;28;10001986;-79
2022/01/12 05:18:59;;;;;;;24.23;8.32;;;;;;;-1.86;65.10;96007.13;5030432;28;20034;-79
2022/01/12 05:21:25;;;;;;;24.35;8.60;;;;;;;-2.21;64.25;95948.78;4997358;28;20096;-79
2022/01/12 05:23:51;;;;;;;25.52;8.38;;;;;;;-2.17;65.30;96019.41;4998958;28;20080;-78
2022/01/12 05:26:17;;;;;;;18.38;8.60;;;;;;;-2.30;65.10;95996.59;5028894;28;20094;-78
2022/01/12 05:28:42;;;;;;;22.27;7.50;;;;;;;-2.70;64.52;95966.53;5014378;28;20034;-78
2022/01/12 05:31:12;;;;;;;15.93;7.30;;;;;;;-2.39;65.06;96034.81;4997042;28;20061;-80
2022/01/12 05:33:38;;;;;;;15.70;7.63;;;;;;;-2.92;64.59;95938.75;5031136;28;20041;-79
2022/01/12 05:36:06;;;;;;;15.95;7.32;;;;;;;-3.37;65.66;95883.22;5015878;28;20042;-79
2022/01/12 05:38:33;;;;;;;17.23;7.47;;;;;;;-2.72;65.59;95963.28;5012806;28;20130;-78
2022/01/12 05:41:02;;;;;;;17.25;7.53;;;;;;;-2.52;65.04;95990.44;4996496;28;20438;-79
2022/01/12 05:43:30;;;;;;;19.95;7.55;;;;;;;-2.45;65.19;95982.75;4990378;28;20050;-77
2022/01/12 05:46:07;;;;;;;17.40;8.85;;;;;;;-2.33;65.28;96038.50;4990699;28;20464;-79
2022/01/12 05:49:36;;;;;;;18.42;7.90;;;;;;;-2.51;65.85;96035.38;5027358;28;20038;-79
2022/01/12 05:51:29;;;;;;;18.63;7.88;;;;;;;-2.34;65.76;96036.88;5014372;28;20042;-78
2022/01/12 05:53:55;;;;;;;26.60;8.52;;;;;;;-2.74;65.51;95963.44;5029960;28;20052;-78
2022/01/12 05:56:21;;;;;;;15.65;8.32;;;;;;;-2.58;65.00;96016.25;4996207;28;20030;-78
2022/01/12 05:58:47;;;;;;;21.85;7.85;;;;;;;-3.55;64.88;95836.78;4994591;28;20096;-79
2022/01/12 06:01:13;;;;;;;25.10;7.90;;;;;;;-2.11;64.53;96055.91;4994481;28;20045;-78
2022/01/12 06:03:41;;;;;;;22.55;9.15;;;;;;;-2.86;65.43;95933.69;5027670;28;20030;-79
2022/01/12 06:06:10;;;;;;;23.15;8.10;;;;;;;-2.78;64.54;95928.44;5026893;28;20038;-78
2022/01/12 06:08:38;;;;;;;23.73;9.20;;;;;;;-2.22;64.46;96027.72;4995162;28;20038;-79
2022/01/12 06:11:07;;;;;;;26.25;9.07;;;;;;;-3.09;65.21;95880.13;4996807;28;20041;-79
2022/01/12 06:13:32;;;;;;;18.08;8.80;;;;;;;-2.94;64.26;95928.53;4997483;28;20049;-79
2022/01/12 06:15:58;;;;;;;38.78;9.48;;;;;;;-2.75;64.54;95984.41;4996166;28;20027;-79
2022/01/12 06:18:23;;;;;;;22.50;9.10;;;;;;;-2.20;64.84;96032.72;4999399;28;20090;-79
2022/01/12 06:20:49;;;;;;;25.75;9.38;;;;;;;-2.37;64.46;96039.84;4999167;28;20073;-80
2022/01/12 06:23:14;;;;;;;18.58;8.13;;;;;;;-2.30;64.51;96030.38;5000591;28;20050;-81
2022/01/12 06:25:40;;;;;;;20.88;8.65;;;;;;;-2.65;64.89;95984.16;4999515;28;20048;-81
2022/01/12 06:28:35;;;;;;;18.33;8.10;;;;;;;-2.18;64.72;96038.56;4999449;28;20034;-81
2022/01/12 06:31:10;;;;;;;22.13;8.88;;;;;;;-2.20;64.19;96048.31;5001247;28;20064;-80
2022/01/12 06:33:46;;;;;;;24.65;8.05;;;;;;;-1.81;64.19;96103.59;4997507;28;20030;-80
2022/01/12 06:36:17;;;;;;;21.88;9.18;;;;;;;-2.74;63.69;95996.38;4997472;28;20042;-80
2022/01/12 06:38:44;;;;;;;21.83;8.38;;;;;;;-1.82;64.67;96130.59;4997171;28;20095;-80
2022/01/12 06:41:11;;;;;;;30.75;11.90;;;;;;;-2.28;64.55;96027.59;5000785;28;20069;-80
2022/01/12 06:43:37;;;;;;;27.83;10.50;;;;;;;-1.59;64.39;96122.78;4997313;28;20525;-80
2022/01/12 06:46:04;;;;;;;16.45;7.43;;;;;;;-2.42;63.09;95997.97;4998802;28;20141;-80
2022/01/12 06:48:31;;;;;;;21.92;8.40;;;;;;;-2.13;63.30;96044.03;4996693;28;20046;-79
2022/01/12 06:50:57;;;;;;;20.42;8.80;;;;;;;-2.09;63.79;96033.16;4998004;28;20042;-80
2022/01/12 06:53:23;;;;;;;30.20;9.27;;;;;;;-1.68;63.70;96101.22;4997150;28;20041;-80
2022/01/12 06:55:48;;;;;;;19.55;9.68;;;;;;;-2.25;62.90;95993.47;4997731;28;20450;-79
2022/01/12 06:58:14;;;;;;;16.70;7.43;;;;;;;-1.86;62.95;96133.72;5032342;28;20049;-79
2022/01/12 07:00:39;;;;;;;17.13;7.75;;;;;;;-2.06;63.00;96069.16;5002808;28;20060;-79
2022/01/12 07:03:05;;;;;;;15.50;8.07;;;;;;;-1.98;64.12;96094.28;4998250;28;20074;-81
2022/01/12 07:05:30;;;;;;;21.95;9.48;;;;;;;-2.02;63.17;96096.44;5030693;28;20038;-80
2022/01/12 07:07:56;;;;;;;22.48;8.05;;;;;;;-1.90;62.64;96129.81;4999912;28;20113;-79
2022/01/12 07:10:21;;;;;;;16.88;6.60;;;;;;;-1.80;62.08;96157.22;4999627;28;20035;-79
2022/01/12 07:12:47;;;;;;;20.45;7.75;;;;;;;-2.68;62.02;96046.84;4996012;28;20033;-79
2022/01/12 07:15:12;;;;;;;22.63;8.23;;;;;;;-2.33;62.72;96065.31;5029695;28;20042;-80
2022/01/12 07:17:38;;;;;;;29.30;8.73;;;;;;;-2.36;62.40;96089.00;4999538;28;20050;-81
2022/01/12 07:20:05;;;;;;;16.33;7.47;;;;;;;-1.83;62.54;96160.16;5029626;28;20030;-79
2022/01/12 07:22:31;;;;;;;31.67;9.02;;;;;;;-2.25;62.59;96095.63;4997121;28;20038;-79
2022/01/12 07:24:56;;;;;;;29.35;8.60;;;;;;;-2.27;62.26;96107.97;5028800;28;20034;-79
2022/01/12 07:27:22;;;;;;;30.20;8.57;;;;;;;-2.06;61.98;96128.94;4998349;28;20066;-79
2022/01/12 07:29:47;;;;;;;18.15;7.78;;;;;;;-2.23;61.77;96096.28;4995807;28;20046;-79
2022/01/12 07:32:13;;;;;;;24.20;8.15;;;;;;;-2.07;61.88;96116.97;4993999;28;20038;-79
2022/01/12 07:34:39;;;;;;;26.85;8.48;;;;;;;-2.05;61.49;96138.38;4995988;28;20498;-80
2022/01/12 07:37:05;;;;;;;36.45;9.20;;;;;;;-1.85;62.08;96179.53;5029600;28;20106;-79
2022/01/12 07:39:31;;;;;;;25.15;8.93;;;;;;;-1.90;62.36;96180.03;5030209;28;20046;-79
2022/01/12 07:41:57;;;;;;;24.75;8.95;;;;;;;-3.50;61.83;95898.50;4997623;28;20192;-80
2022/01/12 07:44:22;;;;;;;24.20;8.65;;;;;;;-2.18;62.51;96127.75;4996927;28;20054;-80
2022/01/12 07:46:48;;;;;;;24.20;7.68;;;;;;;-2.45;62.21;96065.88;4997248;28;20107;-81
2022/01/12 07:49:14;;;;;;;13.68;7.20;;;;;;;-1.74;61.84;96182.53;4998669;28;20030;-81
2022/01/12 07:51:40;;;;;;;16.58;7.22;;;;;;;-2.14;61.10;96147.22;4998427;28;20042;-80
2022/01/12 07:54:06;;;;;;;23.13;6.80;;;;;;;-2.32;61.55;96149.25;5032861;28;20525;-80
2022/01/12 07:56:31;;;;;;;20.52;7.30;;;;;;;-2.44;61.55;96155.81;4997316;28;20038;-79
2022/01/12 07:58:56;;;;;;;22.42;7.20;;;;;;;-2.87;61.21;96092.19;4995186;28;20031;-80
2022/01/12 08:01:22;;;;;;;18.10;6.90;;;;;;;-2.97;61.84;96107.13;4993242;28;20461;-80
2022/01/12 08:03:48;;;;;;;21.65;6.15;;;;;;;-2.52;61.51;96163.63;5027421;28;20026;-79
2022/01/12 08:06:13;;;;;;;19.30;6.72;;;;;;;-2.52;61.50;96180.03;4995367;28;20096;-80
2022/01/12 08:08:39;;;;;;;22.88;7.00;;;;;;;-3.42;61.67;96029.91;4993329;28;20030;-79
2022/01/12 08:11:04;;;;;;;18.35;6.88;;;;;;;-2.72;61.20;96129.44;4996064;28;20040;-80
2022/01/12 08:13:30;;;;;;;19.58;6.90;;;;;;;-2.90;61.98;96108.91;4993539;28;20051;-79
2022/01/12 08:15:55;;;;;;;24.40;6.97;;;;;;;-2.05;61.93;96212.94;4997116;28;20035;-79
2022/01/12 08:18:21;;;;;;;23.35;6.50;;;;;;;-2.41;61.48;96178.84;4995029;28;20066;-79
2022/01/12 08:20:46;;;;;;;19.60;6.57;;;;;;;-2.25;60.77;96183.97;4994565;28;20038;-79
2022/01/12 08:23:12;;;;;;;16.60;6.25;;;;;;;-2.38;59.73;96175.91;4993684;28;20037;-79
2022/01/12 08:25:41;;;;;;;22.65;6.57;;;;;;;-1.90;61.50;96216.44;5031366;28;20499;-80
2022/01/12 08:28:07;;;;;;;22.88;6.05;;;;;;;-2.47;60.60;96122.38;5032791;28;20101;-80
2022/01/12 08:30:34;;;;;;;27.77;7.22;;;;;;;-2.66;60.71;96126.19;4996597;28;20096;-80
2022/01/12 08:33:01;;;;;;;21.23;7.47;;;;;;;-1.92;59.99;96202.81;4996786;28;20026;-79
2022/01/12 08:35:28;;;;;;;27.08;6.97;;;;;;;-1.67;59.96;96222.47;5027730;28;20093;-80
2022/01/12 08:37:54;;;;;;;14.48;6.75;;;;;;;-1.68;59.95;96225.28;4997282;28;20121;-80
2022/01/12 08:40:22;;;;;;;35.80;7.40;;;;;;;-1.77;60.07;96187.28;5028173;28;20062;-81
2022/01/12 08:42:48;;;;;;;22.23;7.03;;;;;;;-1.59;59.32;96224.22;5027844;28;20044;-80
2022/01/12 08:45:18;;;;;;;33.97;7.57;;;;;;;-3.37;59.28;95936.88;5027622;28;20126;-81
2022/01/12 08:47:45;;;;;;;15.50;6.07;;;;;;;-3.36;59.48;95967.84;4995868;28;20577;-81
2022/01/12 08:50:11;;;;;;;27.67;6.72;;;;;;;-5.25;59.14;95717.38;5028649;28;20038;-81
2022/01/12 08:52:37;;;;;;;18.50;5.72;;;;;;;-3.23;59.06;96022.59;4993958;28;20382;-80
2022/01/12 08:55:03;;;;;;;12.52;5.13;;;;;;;-2.16;58.51;96190.75;4993821;28;20044;-80
2022/01/12 08:57:29;;;;;;;28.42;6.30;;;;;;;-3.12;59.89;96078.47;5027050;28;20039;-80
2022/01/12 08:59:57;;;;;;;18.35;5.57;;;;;;;-2.94;59.67;96079.06;4994433;28;20034;-79
2022/01/12 09:02:22;;;;;;;41.10;7.40;;;;;;;-2.15;60.17;96202.78;4993360;28;20046;-80
2022/01/12 09:04:47;;;;;;;24.65;6.93;;;;;;;-2.21;59.56;96182.63;4995020;28;20038;-79
2022/01/12 09:07:13;;;;;;;25.45;6.72;;;;;;;-2.24;59.30;96146.63;5026716;28;20133;-80
2022/01/12 09:09:39;;;;;;;22.50;6.47;;;;;;;-1.82;59.26;96226.78;5025298;28;20109;-79
2022/01/12 09:12:05;;;;;;;17.02;6.10;;;;;;;-2.39;59.34;96140.53;4994260;28;20120;-79
2022/01/12 09:14:31;;;;;;;36.03;6.70;;;;;;;-2.56;59.96;96115.59;4995207;28;20517;-80
2022/01/12 09:16:59;;;;;;;21.33;6.47;;;;;;;-1.80;59.67;96230.03;4995266;28;20472;-81
2022/01/12 09:19:25;;;;;;;18.55;6.18;;;;;;;-1.80;59.62;96230.03;5027348;28;20105;-80
2022/01/12 09:21:51;;;;;;;28.13;6.10;;;;;;;-2.16;59.47;96164.75;4998466;28;20489;-79
2022/01/12 09:24:17;;;;;;;16.38;5.63;;;;;;;-2.07;59.65;96230.53;4996179;28;20046;-79
2022/01/12 09:26:43;;;;;;;33.05;7.00;;;;;;;-2.47;60.06;96162.16;4995313;28;20378;-80
2022/01/12 09:29:09;;;;;;;31.15;6.82;;;;;;;-2.14;59.99;96198.38;4996104;28;20441;-80
2022/01/12 09:31:35;;;;;;;19.73;5.93;;;;;;;-2.37;61.08;96182.75;4996800;28;20049;-81
2022/01/12 09:34:02;;;;;;;12.57;5.50;;;;;;;-2.25;61.31;96164.97;4994870;28;20473;-80
2022/01/12 09:36:27;;;;;;;14.40;4.80;;;;;;;-1.95;59.63;96229.97;5029131;28;20096;-81
2022/01/12 09:38:54;;;;;;;13.23;5.13;;;;;;;-2.67;60.06;96136.75;4998326;28;20038;-81
2022/01/12 09:41:20;;;;;;;10.90;3.70;;;;;;;-3.98;60.03;95936.59;5031092;28;20045;-80
2022/01/12 09:43:51;;;;;;;10.13;4.72;;;;;;;-3.55;60.31;95986.38;5030858;28;20077;-81
2022/01/12 09:46:16;;;;;;;10.98;4.38;;;;;;;-2.96;60.21;96098.38;5033095;28;20106;-80
2022/01/12 09:48:42;;;;;;;16.77;5.45;;;;;;;-4.02;61.06;95935.28;4997323;28;20136;-81
2022/01/12 09:51:08;;;;;;;12.75;5.32;;;;;;;-2.26;60.52;96171.13;4995887;28;20030;-81
2022/01/12 09:53:35;;;;;;;9.75;4.32;;;;;;;-3.15;60.05;96026.94;5028487;28;20042;-81
2022/01/12 09:56:08;;;;;;;20.05;6.07;;;;;;;-1.72;59.50;96222.19;4996040;28;20044;-81
2022/01/12 09:58:34;;;;;;;19.70;5.78;;;;;;;-2.31;58.78;96103.28;5025977;28;20042;-80
2022/01/12 10:01:01;;;;;;;16.50;5.43;;;;;;;-1.57;58.76;96225.69;4995073;28;20046;-80
2022/01/12 10:03:27;;;;;;;13.85;4.55;;;;;;;-1.53;58.62;96227.94;4995176;28;20034;-81
2022/01/12 10:05:54;;;;;;;24.15;5.85;;;;;;;-2.40;58.70;96061.78;4995362;28;20077;-80
2022/01/12 10:08:19;;;;;;;17.52;5.45;;;;;;;-1.74;58.73;96147.91;5027341;28;20030;-80
2022/01/12 10:11:06;;;;;;;7.75;4.07;;;;;;;-1.21;58.30;96225.09;4993073;28;20061;-80
2022/01/12 10:13:32;;;;;;;12.00;5.10;;;;;;;-1.71;58.85;96166.59;4994875;28;20038;-80
2022/01/12 10:16:13;;;;;;;13.27;5.53;;;;;;;-2.18;59.02;96147.72;4994699;28;20065;-79
2022/01/12 10:18:50;;;;;;;11.60;4.68;;;;;;;-2.23;58.58;96131.84;4996527;28;20038;-80
2022/01/12 10:21:37;;;;;;;12.27;5.18;;;;;;;-1.66;59.03;96228.50;4995954;28;20370;-79
2022/01/12 10:24:10;;;;;;;20.40;6.32;;;;;;;-1.88;59.18;96232.69;5026386;28;20138;-79
2022/01/12 10:26:45;;;;;;;17.83;6.20;;;;;;;-2.18;58.83;96140.72;4994588;28;20185;-80
2022/01/12 10:29:15;;;;;;;19.35;6.45;;;;;;;-1.72;59.14;96209.19;4997535;28;20470;-79
2022/01/12 10:31:51;;;;;;;18.80;5.57;;;;;;;-1.46;59.34;96228.88;4998100;28;20057;-81
2022/01/12 10:34:19;;;;;;;14.48;5.43;;;;;;;-2.20;58.75;96095.09;4994892;28;20172;-80
2022/01/12 10:36:47;;;;;;;25.67;5.25;;;;;;;-1.52;58.27;96226.94;5014738;28;20038;-80
2022/01/12 10:39:14;;;;;;;18.38;5.90;;;;;;;-1.39;58.47;96222.00;5031675;28;20041;-81
2022/01/12 10:41:55;;;;;;;20.27;5.15;;;;;;;-1.95;57.29;96172.75;4997977;28;20027;-79
2022/01/12 10:44:22;;;;;;;16.02;5.13;;;;;;;-2.23;58.04;96098.06;5011259;28;20061;-79
2022/01/12 10:46:48;;;;;;;20.83;5.95;;;;;;;-1.37;57.55;96204.38;5018335;28;20144;-80
2022/01/12 10:49:22;;;;;;;16.45;5.60;;;;;;;-1.43;56.83;96176.47;5001098;28;20032;-81
2022/01/12 10:51:56;;;;;;;12.48;3.95;;;;;;;-1.28;56.62;96219.78;5001937;28;20107;-80
2022/01/12 10:54:23;;;;;;;10.82;4.75;;;;;;;-2.17;57.46;96147.56;4999522;28;20112;-80
2022/01/12 10:56:48;;;;;;;20.83;5.13;;;;;;;-2.01;57.48;96162.25;4999134;28;20034;-81
2022/01/12 10:59:19;;;;;;;8.95;4.93;;;;;;;-1.67;58.31;96217.28;5001681;28;20037;-80
2022/01/12 11:01:45;;;;;;;13.45;4.15;;;;;;;-1.35;56.85;96218.84;5019372;28;20160;-80
2022/01/12 11:04:11;;;;;;;26.20;5.65;;;;;;;-1.29;56.93;96231.16;5019602;28;20164;-81
2022/01/12 11:06:37;;;;;;;17.48;6.20;;;;;;;-1.92;56.75;96122.22;5033261;28;20048;-81
2022/01/12 11:09:06;;;;;;;12.40;4.85;;;;;;;-1.63;56.04;96121.53;5000879;28;20041;-79
2022/01/12 11:11:34;;;;;;;10.63;4.40;;;;;;;-1.57;56.15;96173.66;5001654;28;20105;-80
2022/01/12 11:14:02;;;;;;;19.63;4.57;;;;;;;-1.41;56.00;96216.94;5005584;28;20034;-80
2022/01/12 11:16:29;;;;;;;15.77;5.38;;;;;;;-1.39;57.03;96224.59;5015216;28;20034;-79
2022/01/12 11:18:55;;;;;;;14.48;3.80;;;;;;;-1.93;55.68;96138.00;5017497;28;20069;-80
2022/01/12 11:21:30;;;;;;;20.08;5.28;;;;;;;-1.37;56.50;96222.59;5002626;28;20037;-80
2022/01/12 11:24:04;;;;;;;12.65;4.97;;;;;;;-1.85;56.57;96136.16;5037474;28;20080;-80
2022/01/12 11:26:32;;;;;;;20.67;5.80;;;;;;;-1.30;56.57;96223.56;5019278;28;20187;-80
2022/01/12 11:28:58;;;;;;;10.63;5.32;;;;;;;-1.60;56.00;96162.78;4999172;28;20038;-79
2022/01/12 11:31:32;;;;;;;13.40;4.65;;;;;;;-2.11;56.06;96094.88;4999870;28;20045;-79
2022/01/12 11:33:59;;;;;;;8.32;3.80;;;;;;;-1.41;56.15;96231.75;5015327;28;20030;-78
2022/01/12 11:36:43;;;;;;;17.55;5.07;;;;;;;-2.07;56.35;96095.34;4998228;28;20029;-79
2022/01/12 11:39:20;;;;;;;10.60;4.65;;;;;;;-1.26;56.49;96223.03;5020001;28;20038;-80
2022/01/12 11:41:47;;;;;;;16.48;5.53;;;;;;;-3.04;55.98;95943.50;5014669;28;20048;-79
2022/01/12 11:44:16;;;;;;;12.80;5.20;;;;;;;-1.29;55.78;96199.94;4993203;28;20061;-77
2022/01/12 11:46:44;;;;;;;9.52;5.05;;;;;;;-1.12;55.45;96228.44;4994034;28;20062;-79
2022/01/12 11:49:10;;;;;;;10.02;4.63;;;;;;;-1.46;55.24;96169.84;5026699;28;20124;-79
2022/01/12 11:51:39;;;;;;;10.05;4.05;;;;;;;-1.46;54.19;96171.63;4996601;28;20045;-79
2022/01/12 11:54:13;;;;;;;18.20;4.57;;;;;;;-0.93;54.46;96233.19;4997134;28;20474;-79
2022/01/12 11:56:56;;;;;;;10.48;3.95;;;;;;;-1.50;53.94;96167.75;4995417;28;20136;-79
2022/01/12 11:59:24;;;;;;;25.88;4.82;;;;;;;-0.83;54.01;96244.13;5027693;28;20034;-79
2022/01/12 12:01:53;;;;;;;9.48;4.40;;;;;;;-1.35;53.34;96172.00;4996203;28;20180;-79
2022/01/12 12:04:23;;;;;;;12.90;5.00;;;;;;;-1.18;53.44;96183.09;5010498;28;20477;-79
2022/01/12 12:06:50;;;;;;;9.88;4.10;;;;;;;-1.24;52.95;96196.81;5027387;28;20041;-79
2022/01/12 12:09:18;;;;;;;10.55;5.00;;;;;;;-1.09;53.40;96179.44;4994710;28;20535;-79
2022/01/12 12:11:51;;;;;;;11.20;4.25;;;;;;;-0.67;53.51;96207.50;4995091;28;20038;-80
2022/01/12 12:14:21;;;;;;;12.23;4.47;;;;;;;-0.84;52.60;96167.00;4996996;28;20464;-79
2022/01/12 12:16:48;;;;;;;11.95;5.60;;;;;;;-0.65;52.31;96163.06;5027539;28;20104;-80
2022/01/12 12:19:13;;;;;;;9.60;4.53;;;;;;;-0.72;52.30;96134.31;4995642;28;20137;-79
2022/01/12 12:21:47;;;;;;;13.88;5.47;;;;;;;-0.70;51.76;96147.16;4993601;28;20042;-79
2022/01/12 12:24:14;;;;;;;9.27;4.38;;;;;;;-0.56;51.38;96126.31;5025546;28;20039;-80
2022/01/12 12:26:46;;;;;;;28.42;6.20;;;;;;;0.16;51.29;96245.50;5023515;28;20062;-80
2022/01/12 12:29:14;;;;;;;14.27;6.18;;;;;;;-0.27;50.83;96190.63;4993189;28;20473;-78
2022/01/12 12:31:40;;;;;;;10.68;4.47;;;;;;;-0.38;50.44;96193.66;5025239;28;20057;-80
2022/01/12 12:34:06;;;;;;;14.82;5.90;;;;;;;-0.13;51.11;96221.09;4995327;28;20497;-80
2022/01/12 12:36:32;;;;;;;14.30;6.03;;;;;;;-0.15;51.28;96235.28;4994079;28;20164;-80
2022/01/12 12:39:13;;;;;;;15.02;7.35;;;;;;;0.02;51.46;96238.50;5042958;28;20030;-80
2022/01/12 12:41:46;;;;;;;23.88;7.13;;;;;;;-0.45;52.63;96237.88;5027315;28;20034;-79
2022/01/12 12:44:38;;;;;;;11.13;4.78;;;;;;;-0.26;51.01;96241.78;5027067;28;20073;-79
2022/01/12 12:47:08;;;;;;;10.45;4.88;;;;;;;-0.31;51.17;96245.91;4996313;28;20038;-79
2022/01/12 12:49:44;;;;;;;15.85;5.25;;;;;;;-0.81;52.03;96177.06;4996063;28;20034;-80
2022/01/12 12:52:09;;;;;;;11.82;4.70;;;;;;;-0.70;52.30;96201.88;5027042;28;20038;-80
2022/01/12 12:54:40;;;;;;;19.45;5.82;;;;;;;-1.35;52.24;96096.56;5027732;28;20036;-79
2022/01/12 12:57:08;;;;;;;21.30;5.78;;;;;;;-1.02;51.87;96138.69;5026367;28;20068;-80
2022/01/12 12:59:34;;;;;;;14.18;5.80;;;;;;;-0.93;51.63;96183.69;5026204;28;20042;-80
2022/01/12 13:02:00;;;;;;;27.35;5.72;;;;;;;-1.12;51.40;96119.09;4996655;28;20038;-81
2022/01/12 13:04:26;;;;;;;25.23;6.97;;;;;;;-0.37;51.84;96192.69;5025010;28;20042;-80
2022/01/12 13:06:52;;;;;;;20.13;5.88;;;;;;;0.08;51.46;96238.59;4994627;28;20038;-79
2022/01/12 13:09:18;;;;;;;17.15;7.32;;;;;;;-0.12;51.53;96214.06;4995995;28;20034;-80
2022/01/12 13:11:46;;;;;;;21.35;7.47;;;;;;;0.07;50.90;96225.75;4997770;28;20052;-80
2022/01/12 13:14:15;;;;;;;14.80;6.30;;;;;;;-0.34;51.28;96155.84;5008623;28;20034;-79